sensor_id;sensor_type;location;lat;lon;timestamp;P1;durP1;ratioP1;P2;durP2;ratioP2
46136;SDS011;31871;49.418;8.752;2022-09-30T00:01:42;4.80;;;2.95;;
46136;SDS011;31871;49.418;8.752;2022-09-30T00:04:09;8.48;;;2.75;;
46136;SDS011;31871;49.418;8.752;2022-09-30T00:06:38;11.85;;;2.70;;
46136;SDS011;31871;49.418;8.752;2022-09-30T00:09:04;5.47;;;2.72;;
46136;SDS011;31871;49.418;8.752;2022-09-30T00:11:31;8.48;;;2.35;;
46136;SDS011;31871;49.418;8.752;2022-09-30T00:13:58;5.00;;;2.72;;
46136;SDS011;31871;49.418;8.752;2022-09-30T00:16:25;4.38;;;2.22;;
46136;SDS011;31871;49.418;8.752;2022-09-30T00:18:53;5.65;;;2.90;;
46136;SDS011;31871;49.418;8.752;2022-09-30T00:21:20;10.30;;;2.42;;
46136;SDS011;31871;49.418;8.752;2022-09-30T00:23:46;5.03;;;2.42;;
46136;SDS011;31871;49.418;8.752;2022-09-30T00:26:14;12.75;;;2.78;;
46136;SDS011;31871;49.418;8.752;2022-09-30T00:28:42;18.70;;;3.33;;
46136;SDS011;31871;49.418;8.752;2022-09-30T00:31:12;7.75;;;3.20;;
46136;SDS011;31871;49.418;8.752;2022-09-30T00:33:39;13.18;;;2.95;;
46136;SDS011;31871;49.418;8.752;2022-09-30T00:36:06;4.20;;;2.30;;
46136;SDS011;31871;49.418;8.752;2022-09-30T00:38:32;7.38;;;3.17;;
46136;SDS011;31871;49.418;8.752;2022-09-30T00:40:57;18.20;;;3.33;;
46136;SDS011;31871;49.418;8.752;2022-09-30T00:43:37;5.20;;;2.85;;
46136;SDS011;31871;49.418;8.752;2022-09-30T00:46:06;3.92;;;2.40;;
46136;SDS011;31871;49.418;8.752;2022-09-30T00:48:43;6.47;;;2.42;;
46136;SDS011;31871;49.418;8.752;2022-09-30T00:51:11;7.05;;;2.80;;
46136;SDS011;31871;49.418;8.752;2022-09-30T00:53:43;7.50;;;2.88;;
46136;SDS011;31871;49.418;8.752;2022-09-30T00:56:23;11.02;;;2.83;;
46136;SDS011;31871;49.418;8.752;2022-09-30T00:58:59;8.57;;;2.42;;
46136;SDS011;31871;49.418;8.752;2022-09-30T01:01:45;3.70;;;2.47;;
46136;SDS011;31871;49.418;8.752;2022-09-30T01:04:11;7.63;;;2.55;;
46136;SDS011;31871;49.418;8.752;2022-09-30T01:06:39;8.35;;;3.20;;
46136;SDS011;31871;49.418;8.752;2022-09-30T01:09:06;6.32;;;2.25;;
46136;SDS011;31871;49.418;8.752;2022-09-30T01:11:32;4.93;;;2.35;;
46136;SDS011;31871;49.418;8.752;2022-09-30T01:14:01;5.35;;;2.70;;
46136;SDS011;31871;49.418;8.752;2022-09-30T01:25:24;6.55;;;2.40;;
46136;SDS011;31871;49.418;8.752;2022-09-30T01:33:57;10.87;;;2.47;;
46136;SDS011;31871;49.418;8.752;2022-09-30T01:39:35;4.53;;;2.63;;
46136;SDS011;31871;49.418;8.752;2022-09-30T01:45:17;4.97;;;2.70;;
46136;SDS011;31871;49.418;8.752;2022-09-30T01:50:40;9.95;;;2.70;;
46136;SDS011;31871;49.418;8.752;2022-09-30T01:53:15;8.60;;;2.58;;
46136;SDS011;31871;49.418;8.752;2022-09-30T01:58:41;6.00;;;2.75;;
46136;SDS011;31871;49.418;8.752;2022-09-30T02:01:31;5.55;;;2.63;;
46136;SDS011;31871;49.418;8.752;2022-09-30T02:04:07;4.10;;;2.10;;
46136;SDS011;31871;49.418;8.752;2022-09-30T02:06:38;4.60;;;2.42;;
46136;SDS011;31871;49.418;8.752;2022-09-30T02:09:11;8.27;;;3.00;;
46136;SDS011;31871;49.418;8.752;2022-09-30T02:11:50;5.05;;;2.05;;
46136;SDS011;31871;49.418;8.752;2022-09-30T02:17:13;9.23;;;2.38;;
46136;SDS011;31871;49.418;8.752;2022-09-30T02:19:53;3.63;;;2.15;;
46136;SDS011;31871;49.418;8.752;2022-09-30T02:22:25;10.70;;;3.67;;
46136;SDS011;31871;49.418;8.752;2022-09-30T02:24:59;3.83;;;2.08;;
46136;SDS011;31871;49.418;8.752;2022-09-30T02:27:29;4.40;;;2.30;;
46136;SDS011;31871;49.418;8.752;2022-09-30T02:30:04;5.97;;;2.42;;
46136;SDS011;31871;49.418;8.752;2022-09-30T02:32:34;3.55;;;2.05;;
46136;SDS011;31871;49.418;8.752;2022-09-30T02:35:09;5.72;;;2.58;;
46136;SDS011;31871;49.418;8.752;2022-09-30T02:37:44;5.22;;;2.05;;
46136;SDS011;31871;49.418;8.752;2022-09-30T02:40:19;3.47;;;2.13;;
46136;SDS011;31871;49.418;8.752;2022-09-30T02:42:52;7.63;;;3.20;;
46136;SDS011;31871;49.418;8.752;2022-09-30T02:45:19;7.00;;;2.60;;
46136;SDS011;31871;49.418;8.752;2022-09-30T02:51:23;4.38;;;2.25;;
46136;SDS011;31871;49.418;8.752;2022-09-30T02:56:06;9.30;;;2.20;;
46136;SDS011;31871;49.418;8.752;2022-09-30T02:58:37;5.20;;;2.03;;
46136;SDS011;31871;49.418;8.752;2022-09-30T03:01:08;2.67;;;1.65;;
46136;SDS011;31871;49.418;8.752;2022-09-30T03:06:10;6.07;;;3.05;;
46136;SDS011;31871;49.418;8.752;2022-09-30T03:08:36;5.88;;;2.38;;
46136;SDS011;31871;49.418;8.752;2022-09-30T03:11:02;4.88;;;2.35;;
46136;SDS011;31871;49.418;8.752;2022-09-30T03:28:02;6.90;;;2.42;;
46136;SDS011;31871;49.418;8.752;2022-09-30T03:30:30;7.18;;;2.20;;
46136;SDS011;31871;49.418;8.752;2022-09-30T03:35:45;5.40;;;2.38;;
46136;SDS011;31871;49.418;8.752;2022-09-30T03:41:21;6.55;;;2.17;;
46136;SDS011;31871;49.418;8.752;2022-09-30T03:44:03;8.88;;;2.40;;
46136;SDS011;31871;49.418;8.752;2022-09-30T03:46:40;10.00;;;2.40;;
46136;SDS011;31871;49.418;8.752;2022-09-30T03:49:38;5.22;;;2.08;;
46136;SDS011;31871;49.418;8.752;2022-09-30T03:52:04;6.50;;;3.03;;
46136;SDS011;31871;49.418;8.752;2022-09-30T03:54:32;3.90;;;2.20;;
46136;SDS011;31871;49.418;8.752;2022-09-30T03:56:58;10.45;;;2.40;;
46136;SDS011;31871;49.418;8.752;2022-09-30T03:59:27;5.82;;;2.95;;
46136;SDS011;31871;49.418;8.752;2022-09-30T04:01:53;3.60;;;2.20;;
46136;SDS011;31871;49.418;8.752;2022-09-30T04:04:19;4.55;;;1.92;;
46136;SDS011;31871;49.418;8.752;2022-09-30T04:06:45;7.18;;;2.50;;
46136;SDS011;31871;49.418;8.752;2022-09-30T04:09:11;4.63;;;2.30;;
46136;SDS011;31871;49.418;8.752;2022-09-30T04:11:37;8.10;;;2.08;;
46136;SDS011;31871;49.418;8.752;2022-09-30T04:14:03;7.05;;;2.33;;
46136;SDS011;31871;49.418;8.752;2022-09-30T04:16:29;15.68;;;2.25;;
46136;SDS011;31871;49.418;8.752;2022-09-30T04:18:56;5.50;;;2.05;;
46136;SDS011;31871;49.418;8.752;2022-09-30T04:21:21;9.23;;;1.92;;
46136;SDS011;31871;49.418;8.752;2022-09-30T04:23:48;5.63;;;2.03;;
46136;SDS011;31871;49.418;8.752;2022-09-30T04:26:14;6.38;;;2.35;;
46136;SDS011;31871;49.418;8.752;2022-09-30T04:28:41;5.38;;;1.83;;
46136;SDS011;31871;49.418;8.752;2022-09-30T04:31:07;5.30;;;2.10;;
46136;SDS011;31871;49.418;8.752;2022-09-30T04:33:35;5.00;;;1.92;;
46136;SDS011;31871;49.418;8.752;2022-09-30T04:36:01;4.68;;;2.13;;
46136;SDS011;31871;49.418;8.752;2022-09-30T04:38:27;4.15;;;2.03;;
46136;SDS011;31871;49.418;8.752;2022-09-30T04:40:54;6.13;;;2.67;;
46136;SDS011;31871;49.418;8.752;2022-09-30T04:43:20;12.93;;;2.22;;
46136;SDS011;31871;49.418;8.752;2022-09-30T04:45:49;4.47;;;2.30;;
46136;SDS011;31871;49.418;8.752;2022-09-30T04:48:19;3.15;;;2.00;;
46136;SDS011;31871;49.418;8.752;2022-09-30T04:50:46;4.32;;;2.33;;
46136;SDS011;31871;49.418;8.752;2022-09-30T04:53:12;9.63;;;1.98;;
46136;SDS011;31871;49.418;8.752;2022-09-30T04:55:39;11.27;;;2.65;;
46136;SDS011;31871;49.418;8.752;2022-09-30T04:58:05;8.35;;;2.53;;
46136;SDS011;31871;49.418;8.752;2022-09-30T05:00:30;7.97;;;2.47;;
46136;SDS011;31871;49.418;8.752;2022-09-30T05:02:56;6.00;;;2.47;;
46136;SDS011;31871;49.418;8.752;2022-09-30T05:05:22;4.70;;;2.00;;
46136;SDS011;31871;49.418;8.752;2022-09-30T05:07:47;3.95;;;2.20;;
46136;SDS011;31871;49.418;8.752;2022-09-30T05:10:13;8.40;;;2.28;;
46136;SDS011;31871;49.418;8.752;2022-09-30T05:12:40;4.68;;;2.20;;
46136;SDS011;31871;49.418;8.752;2022-09-30T05:15:06;7.90;;;2.20;;
46136;SDS011;31871;49.418;8.752;2022-09-30T05:17:32;5.53;;;2.60;;
46136;SDS011;31871;49.418;8.752;2022-09-30T05:19:58;7.78;;;2.40;;
46136;SDS011;31871;49.418;8.752;2022-09-30T05:22:24;10.55;;;2.72;;
46136;SDS011;31871;49.418;8.752;2022-09-30T05:24:51;10.05;;;2.38;;
46136;SDS011;31871;49.418;8.752;2022-09-30T05:27:17;4.05;;;2.15;;
46136;SDS011;31871;49.418;8.752;2022-09-30T05:29:43;5.32;;;2.70;;
46136;SDS011;31871;49.418;8.752;2022-09-30T05:32:09;4.28;;;2.30;;
46136;SDS011;31871;49.418;8.752;2022-09-30T05:34:35;6.90;;;2.58;;
46136;SDS011;31871;49.418;8.752;2022-09-30T05:37:02;5.82;;;2.58;;
46136;SDS011;31871;49.418;8.752;2022-09-30T05:39:28;9.75;;;2.45;;
46136;SDS011;31871;49.418;8.752;2022-09-30T05:41:55;4.88;;;2.33;;
46136;SDS011;31871;49.418;8.752;2022-09-30T05:44:21;8.32;;;3.03;;
46136;SDS011;31871;49.418;8.752;2022-09-30T05:46:47;6.10;;;2.28;;
46136;SDS011;31871;49.418;8.752;2022-09-30T05:49:12;5.75;;;2.08;;
46136;SDS011;31871;49.418;8.752;2022-09-30T05:51:38;3.40;;;2.10;;
46136;SDS011;31871;49.418;8.752;2022-09-30T05:54:03;11.65;;;2.63;;
46136;SDS011;31871;49.418;8.752;2022-09-30T05:56:29;6.32;;;2.60;;
46136;SDS011;31871;49.418;8.752;2022-09-30T05:58:55;4.72;;;2.28;;
46136;SDS011;31871;49.418;8.752;2022-09-30T06:01:20;5.70;;;2.22;;
46136;SDS011;31871;49.418;8.752;2022-09-30T06:03:46;10.20;;;3.42;;
46136;SDS011;31871;49.418;8.752;2022-09-30T06:06:12;8.07;;;2.97;;
46136;SDS011;31871;49.418;8.752;2022-09-30T06:08:39;10.30;;;2.70;;
46136;SDS011;31871;49.418;8.752;2022-09-30T06:11:13;3.60;;;2.38;;
46136;SDS011;31871;49.418;8.752;2022-09-30T06:13:41;7.30;;;3.08;;
46136;SDS011;31871;49.418;8.752;2022-09-30T06:16:08;6.13;;;1.75;;
46136;SDS011;31871;49.418;8.752;2022-09-30T06:18:34;4.22;;;2.10;;
46136;SDS011;31871;49.418;8.752;2022-09-30T06:21:01;5.88;;;2.20;;
46136;SDS011;31871;49.418;8.752;2022-09-30T06:23:28;8.13;;;2.50;;
46136;SDS011;31871;49.418;8.752;2022-09-30T06:25:55;5.47;;;2.58;;
46136;SDS011;31871;49.418;8.752;2022-09-30T06:28:22;7.15;;;2.42;;
46136;SDS011;31871;49.418;8.752;2022-09-30T06:30:48;7.93;;;2.45;;
46136;SDS011;31871;49.418;8.752;2022-09-30T06:33:14;8.35;;;2.97;;
46136;SDS011;31871;49.418;8.752;2022-09-30T06:35:41;7.55;;;3.20;;
46136;SDS011;31871;49.418;8.752;2022-09-30T06:38:07;12.68;;;3.35;;
46136;SDS011;31871;49.418;8.752;2022-09-30T06:40:33;7.38;;;3.28;;
46136;SDS011;31871;49.418;8.752;2022-09-30T06:42:59;6.35;;;2.95;;
46136;SDS011;31871;49.418;8.752;2022-09-30T06:45:26;10.48;;;3.40;;
46136;SDS011;31871;49.418;8.752;2022-09-30T06:47:58;11.60;;;3.22;;
46136;SDS011;31871;49.418;8.752;2022-09-30T06:50:25;10.30;;;3.30;;
46136;SDS011;31871;49.418;8.752;2022-09-30T06:52:50;9.30;;;3.40;;
46136;SDS011;31871;49.418;8.752;2022-09-30T06:55:17;11.43;;;3.13;;
46136;SDS011;31871;49.418;8.752;2022-09-30T06:57:43;6.50;;;2.92;;
46136;SDS011;31871;49.418;8.752;2022-09-30T07:00:10;4.57;;;2.70;;
46136;SDS011;31871;49.418;8.752;2022-09-30T07:02:36;7.30;;;2.72;;
46136;SDS011;31871;49.418;8.752;2022-09-30T07:05:02;5.68;;;2.60;;
46136;SDS011;31871;49.418;8.752;2022-09-30T07:07:28;5.53;;;2.95;;
46136;SDS011;31871;49.418;8.752;2022-09-30T07:09:53;6.22;;;2.88;;
46136;SDS011;31871;49.418;8.752;2022-09-30T07:12:19;14.70;;;3.17;;
46136;SDS011;31871;49.418;8.752;2022-09-30T07:14:45;4.20;;;2.55;;
46136;SDS011;31871;49.418;8.752;2022-09-30T07:17:11;7.03;;;2.60;;
46136;SDS011;31871;49.418;8.752;2022-09-30T07:19:36;13.77;;;2.42;;
46136;SDS011;31871;49.418;8.752;2022-09-30T07:22:02;5.72;;;2.70;;
46136;SDS011;31871;49.418;8.752;2022-09-30T07:24:46;9.65;;;3.30;;
46136;SDS011;31871;49.418;8.752;2022-09-30T07:27:12;6.97;;;2.92;;
46136;SDS011;31871;49.418;8.752;2022-09-30T07:29:41;11.20;;;4.25;;
46136;SDS011;31871;49.418;8.752;2022-09-30T07:32:08;7.53;;;3.10;;
46136;SDS011;31871;49.418;8.752;2022-09-30T07:34:34;8.95;;;3.50;;
46136;SDS011;31871;49.418;8.752;2022-09-30T07:37:00;6.18;;;3.28;;
46136;SDS011;31871;49.418;8.752;2022-09-30T07:39:28;6.00;;;2.75;;
46136;SDS011;31871;49.418;8.752;2022-09-30T07:41:55;15.38;;;3.67;;
46136;SDS011;31871;49.418;8.752;2022-09-30T07:44:21;6.00;;;2.97;;
46136;SDS011;31871;49.418;8.752;2022-09-30T07:46:50;9.48;;;2.63;;
46136;SDS011;31871;49.418;8.752;2022-09-30T07:49:16;6.30;;;2.10;;
46136;SDS011;31871;49.418;8.752;2022-09-30T07:51:49;4.93;;;2.40;;
46136;SDS011;31871;49.418;8.752;2022-09-30T07:54:17;10.35;;;2.60;;
46136;SDS011;31871;49.418;8.752;2022-09-30T07:56:45;8.80;;;1.95;;
46136;SDS011;31871;49.418;8.752;2022-09-30T07:59:11;11.52;;;3.22;;
46136;SDS011;31871;49.418;8.752;2022-09-30T08:01:37;4.25;;;1.98;;
46136;SDS011;31871;49.418;8.752;2022-09-30T08:04:05;6.72;;;2.03;;
46136;SDS011;31871;49.418;8.752;2022-09-30T08:06:35;3.35;;;2.05;;
46136;SDS011;31871;49.418;8.752;2022-09-30T08:09:03;8.48;;;2.17;;
46136;SDS011;31871;49.418;8.752;2022-09-30T08:11:32;8.15;;;2.50;;
46136;SDS011;31871;49.418;8.752;2022-09-30T08:13:59;5.40;;;2.67;;
46136;SDS011;31871;49.418;8.752;2022-09-30T08:16:25;7.05;;;1.95;;
46136;SDS011;31871;49.418;8.752;2022-09-30T08:18:57;3.72;;;1.88;;
46136;SDS011;31871;49.418;8.752;2022-09-30T08:21:25;7.57;;;2.30;;
46136;SDS011;31871;49.418;8.752;2022-09-30T08:23:51;3.70;;;2.17;;
46136;SDS011;31871;49.418;8.752;2022-09-30T08:26:17;5.05;;;2.28;;
46136;SDS011;31871;49.418;8.752;2022-09-30T08:28:44;8.82;;;2.10;;
46136;SDS011;31871;49.418;8.752;2022-09-30T08:31:17;4.10;;;2.25;;
46136;SDS011;31871;49.418;8.752;2022-09-30T08:36:13;8.50;;;2.10;;
46136;SDS011;31871;49.418;8.752;2022-09-30T08:38:40;5.28;;;2.33;;
46136;SDS011;31871;49.418;8.752;2022-09-30T08:44:00;8.18;;;3.45;;
46136;SDS011;31871;49.418;8.752;2022-09-30T08:46:42;9.65;;;3.45;;
46136;SDS011;31871;49.418;8.752;2022-09-30T08:52:13;11.80;;;4.00;;
46136;SDS011;31871;49.418;8.752;2022-09-30T08:54:49;9.13;;;4.00;;
46136;SDS011;31871;49.418;8.752;2022-09-30T08:57:16;7.75;;;3.75;;
46136;SDS011;31871;49.418;8.752;2022-09-30T08:59:45;9.68;;;3.58;;
46136;SDS011;31871;49.418;8.752;2022-09-30T09:02:32;8.80;;;3.75;;
46136;SDS011;31871;49.418;8.752;2022-09-30T09:05:03;11.43;;;3.50;;
46136;SDS011;31871;49.418;8.752;2022-09-30T09:15:29;7.38;;;3.25;;
46136;SDS011;31871;49.418;8.752;2022-09-30T09:20:55;7.78;;;3.38;;
46136;SDS011;31871;49.418;8.752;2022-09-30T09:23:24;10.00;;;2.88;;
46136;SDS011;31871;49.418;8.752;2022-09-30T09:25:52;5.40;;;2.83;;
46136;SDS011;31871;49.418;8.752;2022-09-30T09:28:22;6.45;;;2.97;;
46136;SDS011;31871;49.418;8.752;2022-09-30T09:31:02;11.15;;;3.03;;
46136;SDS011;31871;49.418;8.752;2022-09-30T09:33:29;7.15;;;3.28;;
46136;SDS011;31871;49.418;8.752;2022-09-30T09:45:07;6.55;;;2.85;;
46136;SDS011;31871;49.418;8.752;2022-09-30T09:47:15;8.73;;;2.90;;
46136;SDS011;31871;49.418;8.752;2022-09-30T09:49:42;10.20;;;2.60;;
46136;SDS011;31871;49.418;8.752;2022-09-30T09:54:47;9.85;;;2.90;;
46136;SDS011;31871;49.418;8.752;2022-09-30T09:57:19;5.07;;;3.00;;
46136;SDS011;31871;49.418;8.752;2022-09-30T10:05:36;4.68;;;3.10;;
46136;SDS011;31871;49.418;8.752;2022-09-30T10:10:46;11.48;;;3.25;;
46136;SDS011;31871;49.418;8.752;2022-09-30T10:13:17;8.35;;;2.80;;
46136;SDS011;31871;49.418;8.752;2022-09-30T10:18:22;4.70;;;2.42;;
46136;SDS011;31871;49.418;8.752;2022-09-30T10:23:31;6.93;;;3.05;;
46136;SDS011;31871;49.418;8.752;2022-09-30T10:26:02;6.25;;;2.42;;
46136;SDS011;31871;49.418;8.752;2022-09-30T10:31:11;6.47;;;2.13;;
46136;SDS011;31871;49.418;8.752;2022-09-30T10:33:59;7.78;;;2.30;;
46136;SDS011;31871;49.418;8.752;2022-09-30T10:36:35;4.07;;;1.90;;
46136;SDS011;31871;49.418;8.752;2022-09-30T10:39:05;3.75;;;1.80;;
46136;SDS011;31871;49.418;8.752;2022-09-30T10:41:59;4.55;;;2.10;;
46136;SDS011;31871;49.418;8.752;2022-09-30T10:44:28;6.13;;;2.03;;
46136;SDS011;31871;49.418;8.752;2022-09-30T10:46:58;4.65;;;2.20;;
46136;SDS011;31871;49.418;8.752;2022-09-30T10:49:36;5.45;;;2.00;;
46136;SDS011;31871;49.418;8.752;2022-09-30T10:52:15;5.47;;;2.00;;
46136;SDS011;31871;49.418;8.752;2022-09-30T10:59:49;3.35;;;2.00;;
46136;SDS011;31871;49.418;8.752;2022-09-30T11:02:42;23.88;;;5.00;;
46136;SDS011;31871;49.418;8.752;2022-09-30T11:05:22;10.23;;;4.57;;
46136;SDS011;31871;49.418;8.752;2022-09-30T11:13:12;8.20;;;4.35;;
46136;SDS011;31871;49.418;8.752;2022-09-30T11:15:56;12.85;;;4.85;;
46136;SDS011;31871;49.418;8.752;2022-09-30T11:18:39;13.25;;;5.10;;
46136;SDS011;31871;49.418;8.752;2022-09-30T11:21:40;10.40;;;4.85;;
46136;SDS011;31871;49.418;8.752;2022-09-30T11:24:34;12.20;;;5.10;;
46136;SDS011;31871;49.418;8.752;2022-09-30T11:27:15;13.95;;;4.70;;
46136;SDS011;31871;49.418;8.752;2022-09-30T11:29:49;17.73;;;5.60;;
46136;SDS011;31871;49.418;8.752;2022-09-30T11:38:50;15.50;;;5.57;;
46136;SDS011;31871;49.418;8.752;2022-09-30T12:00:33;14.63;;;5.03;;
46136;SDS011;31871;49.418;8.752;2022-09-30T12:03:19;11.02;;;5.30;;
46136;SDS011;31871;49.418;8.752;2022-09-30T12:05:52;9.90;;;4.55;;
46136;SDS011;31871;49.418;8.752;2022-09-30T12:08:26;10.57;;;5.22;;
46136;SDS011;31871;49.418;8.752;2022-09-30T12:13:28;13.13;;;4.22;;
46136;SDS011;31871;49.418;8.752;2022-09-30T12:15:57;9.73;;;5.13;;
46136;SDS011;31871;49.418;8.752;2022-09-30T12:18:29;15.95;;;5.05;;
46136;SDS011;31871;49.418;8.752;2022-09-30T12:21:11;17.13;;;5.13;;
46136;SDS011;31871;49.418;8.752;2022-09-30T12:24:08;12.30;;;4.60;;
46136;SDS011;31871;49.418;8.752;2022-09-30T12:26:40;12.25;;;4.90;;
46136;SDS011;31871;49.418;8.752;2022-09-30T12:29:20;11.90;;;3.58;;
46136;SDS011;31871;49.418;8.752;2022-09-30T12:34:56;15.18;;;4.45;;
46136;SDS011;31871;49.418;8.752;2022-09-30T12:43:15;11.18;;;4.15;;
46136;SDS011;31871;49.418;8.752;2022-09-30T12:48:53;18.23;;;3.25;;
46136;SDS011;31871;49.418;8.752;2022-09-30T12:51:32;13.25;;;3.83;;
46136;SDS011;31871;49.418;8.752;2022-09-30T12:54:11;7.57;;;3.58;;
46136;SDS011;31871;49.418;8.752;2022-09-30T12:56:41;9.88;;;3.60;;
46136;SDS011;31871;49.418;8.752;2022-09-30T12:59:08;8.23;;;3.35;;
46136;SDS011;31871;49.418;8.752;2022-09-30T13:01:35;8.90;;;3.47;;
46136;SDS011;31871;49.418;8.752;2022-09-30T13:17:01;9.23;;;3.15;;
46136;SDS011;31871;49.418;8.752;2022-09-30T13:19:39;13.55;;;3.25;;
46136;SDS011;31871;49.418;8.752;2022-09-30T13:25:10;7.60;;;2.95;;
46136;SDS011;31871;49.418;8.752;2022-09-30T13:27:43;9.15;;;2.65;;
46136;SDS011;31871;49.418;8.752;2022-09-30T13:43:39;6.38;;;2.05;;
46136;SDS011;31871;49.418;8.752;2022-09-30T13:46:50;5.03;;;2.00;;
46136;SDS011;31871;49.418;8.752;2022-09-30T13:49:04;10.07;;;2.10;;
46136;SDS011;31871;49.418;8.752;2022-09-30T13:51:38;4.82;;;2.42;;
46136;SDS011;31871;49.418;8.752;2022-09-30T13:54:06;7.13;;;2.30;;
46136;SDS011;31871;49.418;8.752;2022-09-30T13:56:37;4.85;;;2.40;;
46136;SDS011;31871;49.418;8.752;2022-09-30T14:05:00;5.60;;;2.60;;
46136;SDS011;31871;49.418;8.752;2022-09-30T14:11:11;6.53;;;2.47;;
46136;SDS011;31871;49.418;8.752;2022-09-30T14:14:00;3.67;;;2.03;;
46136;SDS011;31871;49.418;8.752;2022-09-30T14:16:56;3.00;;;1.70;;
46136;SDS011;31871;49.418;8.752;2022-09-30T14:22:07;11.38;;;2.45;;
46136;SDS011;31871;49.418;8.752;2022-09-30T14:24:35;7.30;;;2.53;;
46136;SDS011;31871;49.418;8.752;2022-09-30T14:29:52;4.57;;;2.25;;
46136;SDS011;31871;49.418;8.752;2022-09-30T14:32:31;3.03;;;1.40;;
46136;SDS011;31871;49.418;8.752;2022-09-30T14:35:11;6.68;;;1.23;;
46136;SDS011;31871;49.418;8.752;2022-09-30T14:37:44;2.95;;;1.10;;
46136;SDS011;31871;49.418;8.752;2022-09-30T14:40:17;2.58;;;1.40;;
46136;SDS011;31871;49.418;8.752;2022-09-30T14:42:54;8.50;;;1.65;;
46136;SDS011;31871;49.418;8.752;2022-09-30T14:45:34;4.30;;;1.67;;
46136;SDS011;31871;49.418;8.752;2022-09-30T14:48:07;4.35;;;1.15;;
46136;SDS011;31871;49.418;8.752;2022-09-30T14:50:55;3.30;;;1.63;;
46136;SDS011;31871;49.418;8.752;2022-09-30T14:53:31;4.30;;;1.30;;
46136;SDS011;31871;49.418;8.752;2022-09-30T14:55:59;6.30;;;1.52;;
46136;SDS011;31871;49.418;8.752;2022-09-30T14:58:29;5.38;;;1.55;;
46136;SDS011;31871;49.418;8.752;2022-09-30T15:03:38;3.22;;;1.30;;
46136;SDS011;31871;49.418;8.752;2022-09-30T15:06:16;2.78;;;1.42;;
46136;SDS011;31871;49.418;8.752;2022-09-30T15:08:45;5.70;;;1.58;;
46136;SDS011;31871;49.418;8.752;2022-09-30T15:11:16;2.20;;;1.27;;
46136;SDS011;31871;49.418;8.752;2022-09-30T15:13:43;2.40;;;1.42;;
46136;SDS011;31871;49.418;8.752;2022-09-30T15:16:22;2.17;;;1.27;;
46136;SDS011;31871;49.418;8.752;2022-09-30T15:18:48;6.63;;;1.38;;
46136;SDS011;31871;49.418;8.752;2022-09-30T15:21:14;1.83;;;1.20;;
46136;SDS011;31871;49.418;8.752;2022-09-30T15:23:45;5.15;;;1.30;;
46136;SDS011;31871;49.418;8.752;2022-09-30T15:26:18;3.95;;;1.63;;
46136;SDS011;31871;49.418;8.752;2022-09-30T15:28:46;3.67;;;1.52;;
46136;SDS011;31871;49.418;8.752;2022-09-30T15:31:17;6.75;;;2.28;;
46136;SDS011;31871;49.418;8.752;2022-09-30T15:34:11;2.55;;;1.10;;
46136;SDS011;31871;49.418;8.752;2022-09-30T15:36:37;6.10;;;1.50;;
46136;SDS011;31871;49.418;8.752;2022-09-30T15:39:03;3.97;;;1.80;;
46136;SDS011;31871;49.418;8.752;2022-09-30T15:41:37;3.97;;;1.48;;
46136;SDS011;31871;49.418;8.752;2022-09-30T15:44:04;10.57;;;1.48;;
46136;SDS011;31871;49.418;8.752;2022-09-30T15:47:07;5.80;;;1.50;;
46136;SDS011;31871;49.418;8.752;2022-09-30T15:54:53;2.47;;;1.17;;
46136;SDS011;31871;49.418;8.752;2022-09-30T15:57:35;4.70;;;1.20;;
46136;SDS011;31871;49.418;8.752;2022-09-30T16:00:10;10.45;;;1.38;;
46136;SDS011;31871;49.418;8.752;2022-09-30T16:03:04;6.75;;;1.30;;
46136;SDS011;31871;49.418;8.752;2022-09-30T16:05:43;2.45;;;1.17;;
46136;SDS011;31871;49.418;8.752;2022-09-30T16:08:12;2.60;;;1.38;;
46136;SDS011;31871;49.418;8.752;2022-09-30T16:10:50;2.83;;;1.35;;
46136;SDS011;31871;49.418;8.752;2022-09-30T16:13:18;4.80;;;1.50;;
46136;SDS011;31871;49.418;8.752;2022-09-30T16:15:49;2.45;;;1.40;;
46136;SDS011;31871;49.418;8.752;2022-09-30T16:18:17;5.63;;;2.00;;
46136;SDS011;31871;49.418;8.752;2022-09-30T16:20:56;3.53;;;1.85;;
46136;SDS011;31871;49.418;8.752;2022-09-30T16:23:30;3.30;;;1.50;;
46136;SDS011;31871;49.418;8.752;2022-09-30T16:26:20;3.30;;;1.77;;
46136;SDS011;31871;49.418;8.752;2022-09-30T16:28:52;2.80;;;1.55;;
46136;SDS011;31871;49.418;8.752;2022-09-30T16:31:20;2.38;;;1.40;;
46136;SDS011;31871;49.418;8.752;2022-09-30T16:33:47;3.10;;;1.67;;
46136;SDS011;31871;49.418;8.752;2022-09-30T16:36:13;11.45;;;1.77;;
46136;SDS011;31871;49.418;8.752;2022-09-30T16:38:39;2.92;;;1.58;;
46136;SDS011;31871;49.418;8.752;2022-09-30T16:41:08;5.25;;;1.88;;
46136;SDS011;31871;49.418;8.752;2022-09-30T16:43:38;3.35;;;1.70;;
46136;SDS011;31871;49.418;8.752;2022-09-30T16:46:04;6.03;;;1.40;;
46136;SDS011;31871;49.418;8.752;2022-09-30T16:48:30;6.90;;;1.27;;
46136;SDS011;31871;49.418;8.752;2022-09-30T16:51:14;4.28;;;1.70;;
46136;SDS011;31871;49.418;8.752;2022-09-30T16:53:40;4.38;;;2.00;;
46136;SDS011;31871;49.418;8.752;2022-09-30T16:56:17;5.80;;;1.65;;
46136;SDS011;31871;49.418;8.752;2022-09-30T16:58:44;6.53;;;1.55;;
46136;SDS011;31871;49.418;8.752;2022-09-30T17:01:14;6.80;;;1.90;;
46136;SDS011;31871;49.418;8.752;2022-09-30T17:03:45;5.78;;;1.85;;
46136;SDS011;31871;49.418;8.752;2022-09-30T17:06:11;6.55;;;1.90;;
46136;SDS011;31871;49.418;8.752;2022-09-30T17:08:41;10.90;;;2.28;;
46136;SDS011;31871;49.418;8.752;2022-09-30T17:11:07;7.72;;;2.42;;
46136;SDS011;31871;49.418;8.752;2022-09-30T17:13:33;4.10;;;1.70;;
46136;SDS011;31871;49.418;8.752;2022-09-30T17:15:59;4.32;;;1.77;;
46136;SDS011;31871;49.418;8.752;2022-09-30T17:18:25;7.60;;;2.80;;
46136;SDS011;31871;49.418;8.752;2022-09-30T17:20:51;15.95;;;4.40;;
46136;SDS011;31871;49.418;8.752;2022-09-30T17:23:21;21.48;;;4.03;;
46136;SDS011;31871;49.418;8.752;2022-09-30T17:25:48;13.98;;;3.75;;
46136;SDS011;31871;49.418;8.752;2022-09-30T17:28:14;13.90;;;3.75;;
46136;SDS011;31871;49.418;8.752;2022-09-30T17:30:43;5.72;;;2.22;;
46136;SDS011;31871;49.418;8.752;2022-09-30T17:33:10;5.07;;;2.45;;
46136;SDS011;31871;49.418;8.752;2022-09-30T17:35:36;9.55;;;2.45;;
46136;SDS011;31871;49.418;8.752;2022-09-30T17:38:05;9.48;;;2.33;;
46136;SDS011;31871;49.418;8.752;2022-09-30T17:40:35;8.63;;;2.72;;
46136;SDS011;31871;49.418;8.752;2022-09-30T17:43:19;5.70;;;2.55;;
46136;SDS011;31871;49.418;8.752;2022-09-30T17:45:46;6.38;;;2.92;;
46136;SDS011;31871;49.418;8.752;2022-09-30T17:48:13;10.63;;;4.20;;
46136;SDS011;31871;49.418;8.752;2022-09-30T17:50:46;6.35;;;2.40;;
46136;SDS011;31871;49.418;8.752;2022-09-30T17:53:13;9.90;;;3.13;;
46136;SDS011;31871;49.418;8.752;2022-09-30T17:55:43;7.18;;;3.05;;
46136;SDS011;31871;49.418;8.752;2022-09-30T17:58:11;5.30;;;2.95;;
46136;SDS011;31871;49.418;8.752;2022-09-30T18:00:38;7.93;;;3.20;;
46136;SDS011;31871;49.418;8.752;2022-09-30T18:03:07;16.80;;;3.72;;
46136;SDS011;31871;49.418;8.752;2022-09-30T18:05:36;8.70;;;3.28;;
46136;SDS011;31871;49.418;8.752;2022-09-30T18:08:02;10.15;;;2.55;;
46136;SDS011;31871;49.418;8.752;2022-09-30T18:10:30;13.93;;;2.97;;
46136;SDS011;31871;49.418;8.752;2022-09-30T18:12:56;10.52;;;2.67;;
46136;SDS011;31871;49.418;8.752;2022-09-30T18:15:23;7.22;;;2.83;;
46136;SDS011;31871;49.418;8.752;2022-09-30T18:17:50;19.38;;;2.90;;
46136;SDS011;31871;49.418;8.752;2022-09-30T18:20:15;15.20;;;2.72;;
46136;SDS011;31871;49.418;8.752;2022-09-30T18:22:42;9.60;;;2.28;;
46136;SDS011;31871;49.418;8.752;2022-09-30T18:25:08;5.78;;;2.67;;
46136;SDS011;31871;49.418;8.752;2022-09-30T18:27:47;5.50;;;2.50;;
46136;SDS011;31871;49.418;8.752;2022-09-30T18:30:23;6.20;;;2.55;;
46136;SDS011;31871;49.418;8.752;2022-09-30T18:32:50;5.38;;;2.70;;
46136;SDS011;31871;49.418;8.752;2022-09-30T18:35:17;4.55;;;2.65;;